Time;durP1;ratioP1;P1;durP2;ratioP2;P2;SDS_P1;SDS_P2;PMS_P1;PMS_P2;Temp;Humidity;BMP_temperature;BMP_pressure;BME280_temperature;BME280_humidity;BME280_pressure;Samples;Min_cycle;Max_cycle;Signal;HPM_P1;HPM_P2
2021/03/23 00:00:26;;;;;;;186.10;13.73;;;;;;;;;;5050328;28;20041;-58
2021/03/23 00:02:55;;;;;;;292.95;16.02;;;;;;;;;;5047574;28;20036;-58
2021/03/23 00:05:22;;;;;;;369.17;17.52;;;;;;;;;;5050370;28;20095;-58
2021/03/23 00:07:48;;;;;;;433.85;21.85;;;;;;;;;;5048903;28;20148;-58
2021/03/23 00:10:17;;;;;;;252.05;17.38;;;;;;;;;;5052037;28;20056;-58
2021/03/23 00:12:43;;;;;;;166.88;11.27;;;;;;;;;;5056704;28;20036;-58
2021/03/23 00:15:10;;;;;;;188.18;11.48;;;;;;;;;;5056738;28;20124;-58
2021/03/23 00:17:37;;;;;;;97.70;8.07;;;;;;;;;;5049615;28;20041;-58
2021/03/23 00:20:08;;;;;;;225.60;14.77;;;;;;;;;;5050572;28;20037;-58
2021/03/23 00:22:36;;;;;;;157.55;11.13;;;;;;;;;;5050025;28;20037;-58
2021/03/23 00:25:03;;;;;;;384.17;20.83;;;;;;;;;;5049713;28;20404;-58
2021/03/23 00:27:30;;;;;;;243.68;16.00;;;;;;;;;;5047418;28;20431;-58
2021/03/23 00:29:56;;;;;;;219.13;13.50;;;;;;;;;;5047894;28;20045;-58
2021/03/23 00:32:22;;;;;;;263.58;16.60;;;;;;;;;;5051498;28;20041;-57
2021/03/23 00:34:49;;;;;;;226.15;14.38;;;;;;;;;;5051190;28;20044;-58
2021/03/23 00:37:15;;;;;;;210.57;13.82;;;;;;;;;;5046094;28;20063;-58
2021/03/23 00:39:41;;;;;;;272.05;15.93;;;;;;;;;;5043854;28;20088;-58
2021/03/23 00:42:08;;;;;;;129.80;10.00;;;;;;;;;;5046840;28;20045;-58
2021/03/23 00:44:35;;;;;;;148.90;10.32;;;;;;;;;;5041249;28;20046;-58
2021/03/23 00:47:01;;;;;;;206.75;12.30;;;;;;;;;;5042918;28;20049;-58
2021/03/23 00:49:27;;;;;;;255.85;14.25;;;;;;;;;;5046863;28;20041;-58
2021/03/23 00:51:54;;;;;;;281.70;16.33;;;;;;;;;;5047674;28;20057;-58
2021/03/23 00:54:20;;;;;;;249.18;14.45;;;;;;;;;;5047824;28;20511;-58
2021/03/23 00:56:47;;;;;;;199.13;11.27;;;;;;;;;;5050247;28;20044;-58
2021/03/23 00:59:13;;;;;;;297.08;13.77;;;;;;;;;;5040741;28;20040;-58
2021/03/23 01:01:40;;;;;;;89.32;8.05;;;;;;;;;;5049195;28;20070;-58
2021/03/23 01:04:20;;;;;;;207.75;10.77;;;;;;;;;;5045789;28;20060;-58
2021/03/23 01:06:46;;;;;;;239.75;13.52;;;;;;;;;;5044918;28;20037;-58
2021/03/23 01:09:13;;;;;;;286.63;13.52;;;;;;;;;;5044565;28;20053;-58
2021/03/23 01:11:39;;;;;;;206.52;10.65;;;;;;;;;;5050449;28;20044;-57
2021/03/23 01:14:05;;;;;;;134.63;11.07;;;;;;;;;;5050075;28;20045;-58
2021/03/23 01:16:32;;;;;;;268.33;12.40;;;;;;;;;;5043415;28;20128;-58
2021/03/23 01:19:00;;;;;;;84.05;5.68;;;;;;;;;;5045169;28;20116;-58
2021/03/23 01:21:26;;;;;;;105.35;7.63;;;;;;;;;;5040014;28;20112;-58
2021/03/23 01:23:53;;;;;;;171.68;10.07;;;;;;;;;;5041893;28;20033;-58
2021/03/23 01:26:19;;;;;;;239.00;13.73;;;;;;;;;;5046996;28;20084;-59
2021/03/23 01:28:45;;;;;;;132.68;10.40;;;;;;;;;;5043918;28;20041;-58
2021/03/23 01:31:12;;;;;;;177.82;11.23;;;;;;;;;;5037643;28;20037;-58
2021/03/23 01:33:38;;;;;;;255.38;14.82;;;;;;;;;;5043398;28;20045;-58
2021/03/23 01:36:05;;;;;;;149.75;9.95;;;;;;;;;;5046570;28;20048;-57
2021/03/23 01:38:32;;;;;;;186.30;11.40;;;;;;;;;;5048052;28;20567;-58
2021/03/23 01:40:59;;;;;;;158.43;9.13;;;;;;;;;;5049342;28;20801;-58
2021/03/23 01:43:28;;;;;;;140.65;10.15;;;;;;;;;;5049461;28;20055;-58
2021/03/23 01:45:58;;;;;;;158.73;9.98;;;;;;;;;;5047537;28;20055;-58
2021/03/23 01:48:32;;;;;;;261.17;16.05;;;;;;;;;;5045846;28;20033;-58
2021/03/23 01:51:01;;;;;;;220.77;12.15;;;;;;;;;;5052996;28;20150;-58
2021/03/23 01:53:31;;;;;;;113.82;8.50;;;;;;;;;;5054508;28;20048;-58
2021/03/23 01:55:58;;;;;;;163.00;10.55;;;;;;;;;;5042299;28;20041;-58
2021/03/23 01:58:25;;;;;;;181.40;11.57;;;;;;;;;;5046811;28;20094;-57
2021/03/23 02:00:52;;;;;;;84.30;6.53;;;;;;;;;;5048601;28;20140;-58
2021/03/23 02:03:18;;;;;;;177.30;12.38;;;;;;;;;;5048761;28;20398;-58
2021/03/23 02:05:53;;;;;;;176.57;9.60;;;;;;;;;;5049675;28;20478;-59
2021/03/23 02:08:20;;;;;;;276.85;14.38;;;;;;;;;;5047876;28;20062;-58
2021/03/23 02:10:47;;;;;;;274.53;12.47;;;;;;;;;;5046045;28;20044;-58
2021/03/23 02:13:13;;;;;;;239.43;12.90;;;;;;;;;;5050549;28;20128;-58
2021/03/23 02:15:39;;;;;;;251.88;11.57;;;;;;;;;;5037567;28;20046;-58
2021/03/23 02:18:07;;;;;;;313.27;13.98;;;;;;;;;;5044783;28;20041;-58
2021/03/23 02:20:34;;;;;;;259.52;11.07;;;;;;;;;;5050591;28;20060;-58
2021/03/23 02:23:05;;;;;;;376.70;16.13;;;;;;;;;;5050683;28;20064;-58
2021/03/23 02:25:31;;;;;;;239.30;10.90;;;;;;;;;;5050533;28;20037;-58
2021/03/23 02:27:58;;;;;;;324.85;15.25;;;;;;;;;;5050124;28;20065;-58
2021/03/23 02:30:28;;;;;;;273.23;14.07;;;;;;;;;;5048324;28;20037;-58
2021/03/23 02:32:56;;;;;;;226.80;12.23;;;;;;;;;;5050997;28;20045;-58
2021/03/23 02:35:29;;;;;;;396.13;18.45;;;;;;;;;;5049132;28;20048;-58
2021/03/23 02:37:56;;;;;;;177.63;10.07;;;;;;;;;;5042455;28;20045;-58
2021/03/23 02:40:22;;;;;;;277.40;13.20;;;;;;;;;;5050367;28;20106;-58
2021/03/23 02:42:48;;;;;;;348.33;14.68;;;;;;;;;;5060091;28;20306;-58
2021/03/23 02:45:15;;;;;;;300.85;13.35;;;;;;;;;;5050194;28;20493;-58
2021/03/23 02:47:41;;;;;;;186.70;10.10;;;;;;;;;;5045546;28;20044;-58
2021/03/23 02:50:07;;;;;;;211.20;11.13;;;;;;;;;;5043769;28;20068;-58
2021/03/23 02:52:34;;;;;;;325.15;15.63;;;;;;;;;;5042380;28;20524;-58
2021/03/23 02:55:01;;;;;;;151.90;8.77;;;;;;;;;;5047205;28;20116;-58
2021/03/23 02:57:27;;;;;;;217.67;10.03;;;;;;;;;;5050089;28;20082;-58
2021/03/23 02:59:53;;;;;;;349.88;14.13;;;;;;;;;;5050531;28;20295;-58
2021/03/23 03:02:20;;;;;;;346.67;14.50;;;;;;;;;;5051005;28;20041;-58
2021/03/23 03:04:46;;;;;;;214.48;9.45;;;;;;;;;;5044534;28;20037;-58
2021/03/23 03:07:13;;;;;;;247.95;12.95;;;;;;;;;;5051705;28;20041;-58
2021/03/23 03:09:39;;;;;;;346.70;14.52;;;;;;;;;;5051199;28;20049;-58
2021/03/23 03:12:05;;;;;;;349.35;15.20;;;;;;;;;;5048120;28;20048;-58
2021/03/23 03:14:32;;;;;;;257.40;13.43;;;;;;;;;;5046065;28;20099;-58
2021/03/23 03:16:58;;;;;;;354.50;15.95;;;;;;;;;;5045897;28;20493;-61
2021/03/23 03:19:25;;;;;;;291.75;13.35;;;;;;;;;;5046730;28;20033;-58
2021/03/23 03:21:51;;;;;;;304.55;13.63;;;;;;;;;;5048635;28;20056;-58
2021/03/23 03:24:17;;;;;;;207.10;10.32;;;;;;;;;;5047057;28;20087;-58
2021/03/23 03:26:44;;;;;;;136.70;8.68;;;;;;;;;;5056601;28;20053;-58
2021/03/23 03:29:10;;;;;;;180.37;9.50;;;;;;;;;;5043636;28;20044;-58
2021/03/23 03:31:37;;;;;;;186.45;9.80;;;;;;;;;;5045247;28;20303;-59
2021/03/23 03:34:03;;;;;;;117.20;7.03;;;;;;;;;;5054240;28;20086;-58
2021/03/23 03:36:30;;;;;;;198.95;11.60;;;;;;;;;;5045288;28;20048;-58
2021/03/23 03:38:57;;;;;;;134.63;9.85;;;;;;;;;;5044796;28;20587;-58
2021/03/23 03:41:24;;;;;;;119.50;7.78;;;;;;;;;;5044476;28;20065;-58
2021/03/23 03:43:51;;;;;;;129.60;6.35;;;;;;;;;;5037089;28;20095;-56
2021/03/23 03:46:17;;;;;;;189.32;9.38;;;;;;;;;;5048572;28;20124;-58
2021/03/23 03:48:43;;;;;;;124.53;7.07;;;;;;;;;;5049996;28;20040;-58
2021/03/23 03:51:10;;;;;;;231.63;11.60;;;;;;;;;;5044648;28;20133;-58
2021/03/23 03:53:36;;;;;;;189.57;11.48;;;;;;;;;;5045399;28;20049;-58
2021/03/23 03:56:03;;;;;;;95.30;6.53;;;;;;;;;;5043500;28;20037;-58
2021/03/23 03:58:29;;;;;;;197.88;10.45;;;;;;;;;;5041821;28;20119;-58
2021/03/23 04:00:56;;;;;;;65.00;5.40;;;;;;;;;;5047603;28;20370;-58
2021/03/23 04:03:24;;;;;;;100.50;6.80;;;;;;;;;;5042553;28;20049;-57
2021/03/23 04:05:52;;;;;;;115.03;7.95;;;;;;;;;;5044168;28;20123;-58
2021/03/23 04:08:20;;;;;;;125.80;7.70;;;;;;;;;;5045412;28;20071;-58
2021/03/23 04:10:47;;;;;;;109.70;7.35;;;;;;;;;;5045863;28;20041;-58
2021/03/23 04:13:13;;;;;;;90.82;6.88;;;;;;;;;;5050206;28;20040;-58
2021/03/23 04:15:41;;;;;;;45.08;3.08;;;;;;;;;;5052202;28;20558;-58
2021/03/23 04:18:09;;;;;;;55.88;4.95;;;;;;;;;;5050986;28;20063;-57
2021/03/23 04:20:35;;;;;;;71.03;5.75;;;;;;;;;;5042573;28;20049;-58
2021/03/23 04:23:02;;;;;;;94.70;6.63;;;;;;;;;;5041571;28;20759;-57
2021/03/23 04:25:30;;;;;;;106.53;6.85;;;;;;;;;;5053735;28;20307;-58
2021/03/23 04:27:56;;;;;;;46.38;4.60;;;;;;;;;;5044031;28;20575;-58
2021/03/23 04:30:23;;;;;;;145.20;9.43;;;;;;;;;;5041168;28;20447;-58
2021/03/23 04:32:50;;;;;;;59.83;5.07;;;;;;;;;;5045364;28;20060;-57
2021/03/23 04:35:25;;;;;;;54.22;7.97;;;;;;;;;;5046947;28;20045;-58
2021/03/23 04:37:52;;;;;;;56.10;5.68;;;;;;;;;;5051135;28;20603;-58
2021/03/23 04:40:18;;;;;;;96.75;7.93;;;;;;;;;;5050933;28;20045;-58
2021/03/23 04:42:44;;;;;;;115.00;8.63;;;;;;;;;;5043961;28;20508;-58
2021/03/23 04:45:11;;;;;;;66.97;5.93;;;;;;;;;;5046515;28;20036;-58
2021/03/23 04:47:37;;;;;;;78.55;6.72;;;;;;;;;;5043346;28;20090;-58
2021/03/23 04:50:07;;;;;;;180.85;9.07;;;;;;;;;;5049672;28;20493;-58
2021/03/23 04:52:33;;;;;;;124.40;9.27;;;;;;;;;;5049519;28;20132;-58
2021/03/23 04:54:59;;;;;;;174.20;10.02;;;;;;;;;;5045723;28;20029;-58
2021/03/23 04:57:26;;;;;;;222.23;12.13;;;;;;;;;;5047808;28;20041;-57
2021/03/23 04:59:52;;;;;;;130.30;8.32;;;;;;;;;;5049021;28;20041;-57
2021/03/23 05:02:18;;;;;;;143.15;8.57;;;;;;;;;;5042016;28;20079;-57
2021/03/23 05:04:46;;;;;;;156.48;10.27;;;;;;;;;;5047621;28;20107;-58
2021/03/23 05:07:23;;;;;;;116.30;7.72;;;;;;;;;;5049218;28;20052;-57
2021/03/23 05:09:49;;;;;;;97.38;7.43;;;;;;;;;;5045364;28;20037;-57
2021/03/23 05:12:15;;;;;;;132.10;7.88;;;;;;;;;;5046733;28;20044;-57
2021/03/23 05:14:45;;;;;;;94.93;6.47;;;;;;;;;;5046831;28;20148;-57
2021/03/23 05:17:14;;;;;;;114.00;6.40;;;;;;;;;;5045122;28;20057;-57
2021/03/23 05:19:41;;;;;;;159.35;8.45;;;;;;;;;;5047021;28;20055;-57
2021/03/23 05:22:07;;;;;;;114.45;5.55;;;;;;;;;;5052198;28;20056;-58
2021/03/23 05:24:33;;;;;;;174.45;8.80;;;;;;;;;;5049992;28;20048;-58
2021/03/23 05:26:59;;;;;;;121.20;8.98;;;;;;;;;;5049814;28;20455;-58
2021/03/23 05:29:26;;;;;;;106.53;6.28;;;;;;;;;;5045156;28;20400;-57
2021/03/23 05:31:52;;;;;;;122.82;7.40;;;;;;;;;;5045855;28;20124;-57
2021/03/23 05:34:18;;;;;;;85.05;5.80;;;;;;;;;;5044422;28;20047;-58
2021/03/23 05:36:44;;;;;;;195.45;9.43;;;;;;;;;;5045865;28;20511;-57
2021/03/23 05:39:12;;;;;;;171.05;8.88;;;;;;;;;;5040673;28;20045;-56
2021/03/23 05:41:51;;;;;;;131.32;7.07;;;;;;;;;;5035992;28;20061;-57
2021/03/23 05:44:33;;;;;;;112.10;7.32;;;;;;;;;;5048396;28;20041;-58
2021/03/23 05:47:01;;;;;;;141.45;7.28;;;;;;;;;;5046219;28;20056;-58
2021/03/23 05:49:34;;;;;;;132.95;8.02;;;;;;;;;;5046496;28;20120;-58
2021/03/23 05:52:20;;;;;;;136.98;8.02;;;;;;;;;;5044469;28;20049;-58
2021/03/23 05:55:03;;;;;;;165.50;8.43;;;;;;;;;;5041619;28;20038;-58
2021/03/23 05:57:37;;;;;;;182.10;12.13;;;;;;;;;;5047080;28;20056;-58
2021/03/23 06:00:06;;;;;;;100.07;5.53;;;;;;;;;;5046953;28;20041;-58
2021/03/23 06:02:49;;;;;;;83.28;5.68;;;;;;;;;;5051831;28;20060;-58
2021/03/23 06:05:33;;;;;;;170.13;8.32;;;;;;;;;;5049374;28;20041;-58
2021/03/23 06:08:17;;;;;;;123.57;8.05;;;;;;;;;;5053698;28;20033;-58
2021/03/23 06:10:44;;;;;;;162.43;8.32;;;;;;;;;;5046149;28;20071;-58
2021/03/23 06:13:22;;;;;;;139.90;7.68;;;;;;;;;;5054592;28;20492;-58
2021/03/23 06:16:04;;;;;;;112.50;7.43;;;;;;;;;;5052137;28;20144;-58
2021/03/23 06:18:34;;;;;;;94.43;6.90;;;;;;;;;;5049931;28;20444;-58
2021/03/23 06:21:08;;;;;;;52.85;4.15;;;;;;;;;;5053041;28;20036;-58
2021/03/23 06:23:34;;;;;;;86.75;6.53;;;;;;;;;;5045306;28;20863;-58
2021/03/23 06:26:04;;;;;;;65.00;7.13;;;;;;;;;;5041806;28;20037;-58
2021/03/23 06:28:31;;;;;;;70.38;7.50;;;;;;;;;;5049952;28;20063;-58
2021/03/23 06:31:06;;;;;;;61.40;5.13;;;;;;;;;;5045440;28;20431;-58
2021/03/23 06:33:32;;;;;;;88.72;7.38;;;;;;;;;;5051569;28;20147;-58
2021/03/23 06:36:01;;;;;;;57.08;6.90;;;;;;;;;;5046237;28;20143;-58
2021/03/23 06:38:35;;;;;;;302.83;11.73;;;;;;;;;;5042469;28;20044;-58
2021/03/23 06:41:07;;;;;;;257.20;9.95;;;;;;;;;;5047072;28;20037;-57
2021/03/23 06:43:34;;;;;;;234.52;10.88;;;;;;;;;;5038824;28;20049;-58
2021/03/23 06:46:05;;;;;;;106.43;6.50;;;;;;;;;;5048604;28;20123;-58
2021/03/23 06:48:32;;;;;;;345.63;13.75;;;;;;;;;;5039621;28;20129;-58
2021/03/23 06:51:09;;;;;;;328.70;12.90;;;;;;;;;;5038819;28;20054;-58
2021/03/23 06:53:35;;;;;;;377.75;16.27;;;;;;;;;;5040155;28;20053;-58
2021/03/23 06:56:17;;;;;;;175.70;8.07;;;;;;;;;;5042793;28;20067;-58
2021/03/23 06:58:44;;;;;;;202.82;10.40;;;;;;;;;;5048864;28;20053;-58
2021/03/23 07:01:11;;;;;;;95.03;6.03;;;;;;;;;;5049980;28;20403;-58
2021/03/23 07:03:38;;;;;;;197.57;11.15;;;;;;;;;;5050481;28;20044;-58
2021/03/23 07:06:17;;;;;;;57.33;5.15;;;;;;;;;;5057316;28;20057;-58
2021/03/23 07:09:18;;;;;;;88.00;6.20;;;;;;;;;;5045262;28;20443;-58
2021/03/23 07:12:04;;;;;;;104.07;6.93;;;;;;;;;;5046753;28;20049;-58
2021/03/23 07:14:37;;;;;;;95.07;5.97;;;;;;;;;;5043819;28;20094;-58
2021/03/23 07:17:10;;;;;;;65.85;5.65;;;;;;;;;;5049149;28;20087;-58
2021/03/23 07:19:51;;;;;;;59.22;5.78;;;;;;;;;;5048858;28;20052;-58
2021/03/23 07:22:36;;;;;;;51.28;4.53;;;;;;;;;;5052516;28;20052;-58
2021/03/23 07:25:05;;;;;;;88.75;6.60;;;;;;;;;;5048045;28;20048;-59
2021/03/23 07:27:32;;;;;;;117.05;6.32;;;;;;;;;;5045352;28;20048;-58
2021/03/23 07:30:21;;;;;;;105.60;6.78;;;;;;;;;;5052183;28;20063;-58
2021/03/23 07:32:49;;;;;;;85.00;6.30;;;;;;;;;;5046153;28;20052;-58
2021/03/23 07:35:15;;;;;;;;;;;;;;;;;;5045586;28;20029;-58
2021/03/23 07:38:01;;;;;;;131.52;6.63;;;;;;;;;;5051573;28;20419;-58
2021/03/23 07:40:38;;;;;;;83.25;6.50;;;;;;;;;;5043680;28;20072;-58
2021/03/23 07:43:13;;;;;;;72.18;5.72;;;;;;;;;;5048104;28;20515;-58
2021/03/23 07:45:52;;;;;;;49.45;5.93;;;;;;;;;;5050845;28;20550;-58
2021/03/23 07:48:18;;;;;;;;;;;;;;;;;;5051834;28;20546;-58
2021/03/23 07:50:46;;;;;;;64.30;6.88;;;;;;;;;;5058432;28;20321;-58
2021/03/23 07:53:18;;;;;;;45.90;4.97;;;;;;;;;;5047597;28;20044;-58
2021/03/23 07:55:46;;;;;;;53.20;5.20;;;;;;;;;;5039144;28;20049;-58
2021/03/23 07:58:15;;;;;;;26.17;4.97;;;;;;;;;;5043520;28;20087;-58
2021/03/23 08:00:54;;;;;;;43.45;4.50;;;;;;;;;;5043606;28;20099;-58
2021/03/23 08:03:39;;;;;;;24.20;4.60;;;;;;;;;;5047753;28;20040;-58
2021/03/23 08:06:17;;;;;;;27.95;4.32;;;;;;;;;;5051367;28;20045;-58
2021/03/23 08:08:57;;;;;;;27.08;4.43;;;;;;;;;;5045101;28;20049;-58
2021/03/23 08:11:33;;;;;;;33.95;4.13;;;;;;;;;;5050613;28;20033;-58
2021/03/23 08:14:20;;;;;;;18.92;3.95;;;;;;;;;;5046446;28;20086;-58
2021/03/23 08:16:47;;;;;;;18.27;3.83;;;;;;;;;;5046961;28;20057;-58
2021/03/23 08:19:28;;;;;;;17.92;4.32;;;;;;;;;;5050493;28;20054;-58
2021/03/23 08:22:10;;;;;;;16.45;4.45;;;;;;;;;;5041764;28;20124;-58
2021/03/23 08:24:49;;;;;;;16.50;3.72;;;;;;;;;;5039716;28;20049;-58
2021/03/23 08:27:35;;;;;;;6.85;3.70;;;;;;;;;;5049449;28;20060;-58
2021/03/23 08:30:21;;;;;;;15.63;3.65;;;;;;;;;;5052307;28;20376;-58
2021/03/23 08:32:47;;;;;;;8.82;3.08;;;;;;;;;;5045022;28;20056;-58
2021/03/23 08:35:28;;;;;;;6.40;3.03;;;;;;;;;;5044000;28;20052;-58
2021/03/23 08:38:00;;;;;;;10.20;2.83;;;;;;;;;;5049585;28;20287;-58
2021/03/23 08:40:46;;;;;;;6.47;3.13;;;;;;;;;;5049299;28;20479;-58
2021/03/23 08:43:24;;;;;;;6.53;2.60;;;;;;;;;;5050944;28;20076;-59
2021/03/23 08:45:51;;;;;;;5.50;3.00;;;;;;;;;;5045614;28;20037;-58
2021/03/23 08:48:36;;;;;;;6.68;3.03;;;;;;;;;;5047341;28;20067;-58
2021/03/23 08:51:08;;;;;;;5.30;2.30;;;;;;;;;;5045314;28;20075;-58
2021/03/23 08:53:37;;;;;;;7.07;3.13;;;;;;;;;;5051166;28;20592;-58
2021/03/23 08:56:04;;;;;;;5.43;2.85;;;;;;;;;;5049850;28;20447;-58
2021/03/23 08:58:37;;;;;;;6.40;2.65;;;;;;;;;;5049365;28;20057;-58
2021/03/23 09:01:04;;;;;;;4.72;2.92;;;;;;;;;;5042999;28;20049;-58
2021/03/23 09:03:37;;;;;;;4.93;3.13;;;;;;;;;;5042464;28;20041;-58
2021/03/23 09:06:04;;;;;;;7.18;2.80;;;;;;;;;;5051697;28;20041;-58
2021/03/23 09:08:32;;;;;;;5.40;3.42;;;;;;;;;;5048550;28;20098;-58
2021/03/23 09:11:06;;;;;;;8.05;3.45;;;;;;;;;;5040430;28;20060;-58
2021/03/23 09:13:35;;;;;;;5.63;3.05;;;;;;;;;;5051198;28;20041;-58
2021/03/23 09:16:02;;;;;;;6.68;3.47;;;;;;;;;;5047827;28;20052;-58
2021/03/23 09:18:29;;;;;;;9.32;3.88;;;;;;;;;;5050976;28;20037;-59
2021/03/23 09:20:57;;;;;;;5.80;3.33;;;;;;;;;;5050407;28;20128;-58
2021/03/23 09:23:24;;;;;;;9.25;4.50;;;;;;;;;;5039489;28;20055;-59
2021/03/23 09:26:04;;;;;;;8.50;4.22;;;;;;;;;;5052095;28;20045;-59
2021/03/23 09:28:37;;;;;;;9.07;3.72;;;;;;;;;;5049273;28;20040;-59
2021/03/23 09:31:08;;;;;;;7.95;3.45;;;;;;;;;;5044065;28;20564;-58
2021/03/23 09:33:36;;;;;;;7.97;3.83;;;;;;;;;;5048912;28;20060;-58
2021/03/23 09:36:03;;;;;;;6.63;3.90;;;;;;;;;;5042324;28;20046;-58
2021/03/23 09:38:37;;;;;;;8.35;3.53;;;;;;;;;;5050053;28;20048;-58
2021/03/23 09:41:07;;;;;;;8.23;3.92;;;;;;;;;;5049065;28;20045;-58
2021/03/23 09:43:36;;;;;;;10.98;3.97;;;;;;;;;;5050588;28;20053;-58
2021/03/23 09:46:04;;;;;;;9.82;4.07;;;;;;;;;;5047727;28;20029;-58
2021/03/23 09:48:34;;;;;;;10.30;4.07;;;;;;;;;;5040246;28;20076;-59
2021/03/23 09:51:03;;;;;;;9.68;4.15;;;;;;;;;;5045644;28;20098;-58
2021/03/23 09:53:41;;;;;;;10.65;3.80;;;;;;;;;;5048208;28;20132;-59
2021/03/23 09:56:08;;;;;;;;;;;;;;;;;;5050225;28;20075;-58
2021/03/23 09:58:34;;;;;;;8.85;4.20;;;;;;;;;;5039976;28;19920;-59
2021/03/23 10:01:11;;;;;;;11.45;4.07;;;;;;;;;;5042122;28;20042;-58
2021/03/23 10:03:39;;;;;;;11.77;4.10;;;;;;;;;;5045238;28;20052;-59
2021/03/23 10:06:07;;;;;;;12.85;4.63;;;;;;;;;;5050414;28;20033;-58
2021/03/23 10:08:36;;;;;;;10.02;4.18;;;;;;;;;;5047894;28;20052;-59
2021/03/23 10:11:14;;;;;;;11.68;4.50;;;;;;;;;;5044126;28;20041;-59
2021/03/23 10:13:56;;;;;;;9.18;3.80;;;;;;;;;;5046359;28;20041;-59
2021/03/23 10:16:25;;;;;;;20.25;3.97;;;;;;;;;;5045743;28;20047;-58
2021/03/23 10:18:53;;;;;;;16.25;3.60;;;;;;;;;;5048816;28;20130;-59
2021/03/23 10:21:25;;;;;;;13.57;4.10;;;;;;;;;;5044456;28;20041;-59
2021/03/23 10:23:55;;;;;;;12.98;4.13;;;;;;;;;;5045118;28;20079;-58
2021/03/23 10:26:24;;;;;;;12.02;3.85;;;;;;;;;;5048434;28;20539;-58
2021/03/23 10:28:54;;;;;;;14.07;4.10;;;;;;;;;;5044235;28;20047;-59
2021/03/23 10:31:37;;;;;;;18.45;4.32;;;;;;;;;;5037718;28;20041;-58
2021/03/23 10:34:12;;;;;;;11.77;4.53;;;;;;;;;;5045137;28;20042;-59
2021/03/23 10:36:43;;;;;;;12.10;4.00;;;;;;;;;;5048807;28;20069;-59
2021/03/23 10:39:25;;;;;;;9.77;3.55;;;;;;;;;;5050853;28;20045;-58
2021/03/23 10:41:51;;;;;;;12.40;3.85;;;;;;;;;;5047621;28;20060;-59
2021/03/23 10:44:20;;;;;;;12.32;3.33;;;;;;;;;;5050823;28;20041;-58
2021/03/23 10:46:47;;;;;;;15.23;4.18;;;;;;;;;;5046490;28;20049;-59
2021/03/23 10:49:24;;;;;;;16.23;3.95;;;;;;;;;;5052815;28;20049;-58
2021/03/23 10:51:53;;;;;;;12.63;3.90;;;;;;;;;;5050833;28;20075;-59
2021/03/23 10:54:25;;;;;;;15.18;3.88;;;;;;;;;;5051360;28;20049;-59
2021/03/23 10:56:53;;;;;;;15.07;3.88;;;;;;;;;;5045620;28;20112;-58
2021/03/23 10:59:20;;;;;;;13.23;4.18;;;;;;;;;;5051503;28;20542;-59
2021/03/23 11:02:05;;;;;;;12.70;3.75;;;;;;;;;;5048941;28;20060;-59
2021/03/23 11:04:37;;;;;;;15.23;3.67;;;;;;;;;;5053256;28;20048;-58
2021/03/23 11:07:23;;;;;;;15.18;4.40;;;;;;;;;;5052993;28;20049;-59
2021/03/23 11:09:50;;;;;;;15.35;4.93;;;;;;;;;;5045373;28;20331;-59
2021/03/23 11:12:17;;;;;;;13.48;4.43;;;;;;;;;;5052913;28;20048;-59
2021/03/23 11:14:43;;;;;;;10.57;5.20;;;;;;;;;;5048790;28;20044;-59
2021/03/23 11:17:11;;;;;;;10.18;5.25;;;;;;;;;;5049634;28;20747;-59
2021/03/23 11:19:42;;;;;;;11.30;4.78;;;;;;;;;;5039127;28;20551;-59
2021/03/23 11:22:12;;;;;;;11.73;5.35;;;;;;;;;;5051276;28;20503;-59
2021/03/23 11:24:39;;;;;;;10.43;5.68;;;;;;;;;;5051626;28;20048;-59
2021/03/23 11:27:05;;;;;;;12.15;4.82;;;;;;;;;;5055716;28;20053;-59
2021/03/23 11:29:31;;;;;;;8.32;4.65;;;;;;;;;;5050272;28;20055;-59
2021/03/23 11:31:57;;;;;;;8.82;4.40;;;;;;;;;;5053086;28;20049;-59
2021/03/23 11:34:24;;;;;;;8.55;4.68;;;;;;;;;;5044374;28;20071;-59
2021/03/23 11:36:51;;;;;;;7.50;4.60;;;;;;;;;;5052553;28;20044;-59
2021/03/23 11:39:18;;;;;;;7.72;4.35;;;;;;;;;;5040742;28;20030;-59
2021/03/23 11:41:52;;;;;;;8.18;4.85;;;;;;;;;;5047733;28;20429;-58
2021/03/23 11:44:30;;;;;;;9.30;5.18;;;;;;;;;;5045451;28;20539;-59
2021/03/23 11:47:10;;;;;;;8.60;5.90;;;;;;;;;;5044788;28;20095;-58
2021/03/23 11:49:40;;;;;;;10.43;5.70;;;;;;;;;;5037196;28;20520;-58
2021/03/23 11:52:06;;;;;;;12.43;7.20;;;;;;;;;;5037424;28;20045;-59
2021/03/23 11:54:33;;;;;;;13.65;7.63;;;;;;;;;;5044229;28;20071;-59
2021/03/23 11:57:00;;;;;;;11.07;7.30;;;;;;;;;;5051823;28;20037;-59
2021/03/23 11:59:27;;;;;;;14.20;7.78;;;;;;;;;;5050029;28;20045;-59
2021/03/23 12:01:53;;;;;;;11.38;7.57;;;;;;;;;;5057373;28;20036;-59
2021/03/23 12:04:20;;;;;;;16.07;7.97;;;;;;;;;;5044839;28;20051;-59
2021/03/23 12:06:55;;;;;;;18.80;9.52;;;;;;;;;;5047575;28;20300;-59
2021/03/23 12:09:43;;;;;;;19.05;9.40;;;;;;;;;;5048965;28;20049;-59
2021/03/23 12:12:14;;;;;;;18.17;9.27;;;;;;;;;;5044536;28;20115;-59
2021/03/23 12:14:40;;;;;;;15.65;10.10;;;;;;;;;;5044328;28;20055;-59
2021/03/23 12:17:09;;;;;;;16.17;9.07;;;;;;;;;;5050830;28;20044;-59
2021/03/23 12:19:43;;;;;;;19.50;9.57;;;;;;;;;;5046800;28;20053;-59
2021/03/23 12:22:10;;;;;;;19.95;9.00;;;;;;;;;;5047409;28;20049;-59
2021/03/23 12:24:39;;;;;;;16.05;8.95;;;;;;;;;;5050381;28;20065;-59
2021/03/23 12:27:06;;;;;;;16.70;8.05;;;;;;;;;;5053960;28;20052;-59
2021/03/23 12:29:33;;;;;;;16.90;8.43;;;;;;;;;;5048569;28;20071;-58
2021/03/23 12:31:59;;;;;;;18.73;8.32;;;;;;;;;;5049294;28;20051;-59
2021/03/23 12:34:28;;;;;;;14.45;8.25;;;;;;;;;;5050908;28;20128;-59
2021/03/23 12:36:54;;;;;;;19.65;8.57;;;;;;;;;;5043414;28;20045;-59
2021/03/23 12:39:22;;;;;;;17.52;7.93;;;;;;;;;;5051137;28;20037;-59
2021/03/23 12:41:49;;;;;;;14.82;7.22;;;;;;;;;;5051663;28;20083;-59
2021/03/23 12:44:16;;;;;;;16.75;8.05;;;;;;;;;;5040383;28;20050;-59
2021/03/23 12:46:43;;;;;;;16.60;8.60;;;;;;;;;;5051595;28;20047;-58
2021/03/23 12:49:09;;;;;;;15.00;7.43;;;;;;;;;;5048403;28;20299;-59
2021/03/23 12:51:41;;;;;;;23.13;7.63;;;;;;;;;;5049801;28;20296;-58
2021/03/23 12:54:19;;;;;;;14.27;7.00;;;;;;;;;;5050531;28;20048;-59
2021/03/23 12:56:45;;;;;;;13.77;6.25;;;;;;;;;;5048189;28;20190;-58
2021/03/23 12:59:28;;;;;;;14.68;7.05;;;;;;;;;;5053435;28;20033;-58
2021/03/23 13:01:54;;;;;;;13.70;5.85;;;;;;;;;;5052616;28;20052;-58
2021/03/23 13:04:22;;;;;;;18.00;6.33;;;;;;;;;;5048683;28;20123;-58
2021/03/23 13:06:52;;;;;;;17.20;5.95;;;;;;;;;;5047199;28;20049;-58
2021/03/23 13:09:18;;;;;;;16.88;6.05;;;;;;;;;;5045583;28;20044;-59
2021/03/23 13:11:47;;;;;;;13.48;5.88;;;;;;;;;;5042478;28;20053;-58
2021/03/23 13:14:19;;;;;;;14.73;5.40;;;;;;;;;;5049980;28;20049;-58
2021/03/23 13:16:45;;;;;;;16.83;5.63;;;;;;;;;;5047049;28;20099;-58
2021/03/23 13:19:12;;;;;;;19.10;6.17;;;;;;;;;;5044203;28;20765;-58
2021/03/23 13:21:39;;;;;;;15.98;5.72;;;;;;;;;;5048091;28;20299;-58
2021/03/23 13:24:11;;;;;;;18.38;5.40;;;;;;;;;;5043816;28;20079;-58
2021/03/23 13:26:37;;;;;;;12.50;4.50;;;;;;;;;;5039245;28;20083;-58
2021/03/23 13:29:05;;;;;;;20.58;5.45;;;;;;;;;;5050147;28;20044;-58
2021/03/23 13:31:34;;;;;;;20.25;5.22;;;;;;;;;;5041059;28;20072;-58
2021/03/23 13:34:01;;;;;;;17.63;4.95;;;;;;;;;;5046444;28;20110;-58
2021/03/23 13:36:40;;;;;;;18.02;5.28;;;;;;;;;;5046857;28;20098;-58
2021/03/23 13:39:14;;;;;;;19.25;4.55;;;;;;;;;;5045627;28;20044;-58
2021/03/23 13:41:41;;;;;;;16.40;5.63;;;;;;;;;;5050621;28;20036;-58
2021/03/23 13:44:19;;;;;;;20.30;5.82;;;;;;;;;;5050474;28;20041;-58
2021/03/23 13:46:48;;;;;;;16.20;5.47;;;;;;;;;;5047422;28;20045;-58
2021/03/23 13:49:18;;;;;;;13.75;4.50;;;;;;;;;;5048856;28;20151;-58
2021/03/23 13:51:46;;;;;;;13.43;4.97;;;;;;;;;;5049921;28;20048;-58
2021/03/23 13:54:12;;;;;;;13.38;4.80;;;;;;;;;;5049335;28;20053;-59
2021/03/23 13:56:39;;;;;;;11.07;4.43;;;;;;;;;;5045587;28;20040;-58
2021/03/23 13:59:05;;;;;;;13.57;5.25;;;;;;;;;;5048787;28;20055;-58
2021/03/23 14:01:32;;;;;;;13.68;5.50;;;;;;;;;;5040771;28;20512;-58
2021/03/23 14:03:58;;;;;;;13.50;5.00;;;;;;;;;;5050666;28;20404;-58
2021/03/23 14:06:26;;;;;;;13.07;5.63;;;;;;;;;;5052009;28;20045;-58
2021/03/23 14:08:53;;;;;;;15.60;6.47;;;;;;;;;;5047678;28;20053;-58
2021/03/23 14:11:22;;;;;;;11.63;5.10;;;;;;;;;;5039788;28;20048;-59
2021/03/23 14:13:51;;;;;;;15.23;5.57;;;;;;;;;;5043038;28;20037;-58
2021/03/23 14:16:17;;;;;;;12.35;4.95;;;;;;;;;;5039784;28;21150;-58
2021/03/23 14:18:43;;;;;;;15.15;5.32;;;;;;;;;;5049289;28;20091;-58
2021/03/23 14:21:13;;;;;;;18.40;4.63;;;;;;;;;;5042815;28;20037;-58
2021/03/23 14:23:46;;;;;;;13.90;4.10;;;;;;;;;;5044650;28;20302;-58
2021/03/23 14:26:13;;;;;;;10.52;4.50;;;;;;;;;;5050297;28;20106;-58
2021/03/23 14:28:41;;;;;;;14.98;5.30;;;;;;;;;;5042536;28;20140;-58
2021/03/23 14:31:08;;;;;;;11.38;4.00;;;;;;;;;;5043296;28;20131;-58
2021/03/23 14:33:35;;;;;;;13.75;4.65;;;;;;;;;;5048681;28;20067;-58
2021/03/23 14:36:03;;;;;;;14.77;4.00;;;;;;;;;;5049531;28;20124;-58
2021/03/23 14:38:31;;;;;;;10.30;4.60;;;;;;;;;;5045143;28;20088;-58